Weather at Bardufoss Airport

Public forecast

Using degrees Celsius for public forecast. Weather courtesy of forecast.io.

Current aviation weather report (METAR) for Bardufoss Airport

Retrieved 2021/01/27 03:20 UTC (48 seconds ago):

ENDU 270320Z AUTO 30002KT 9999 NCD M18/M20 Q1007 RMK WIND 1100FT 10009KT WIND 2200FT 10017KT

Aviation forecast (TAF) for Bardufoss Airport

Retrieved 2021-01-27 00:57 UTC (2 hours ago):

TAF ENDU 262300Z 2700/2724 VRB03KT CAVOK